sensor_id;sensor_type;location;lat;lon;timestamp;P1;durP1;ratioP1;P2;durP2;ratioP2
6679;SDS011;3376;42.664;23.346;2023-03-23T00:01:59;40.87;;;26.70;;
6679;SDS011;3376;42.664;23.346;2023-03-23T00:04:26;44.30;;;25.23;;
6679;SDS011;3376;42.664;23.346;2023-03-23T00:06:55;37.20;;;24.43;;
6679;SDS011;3376;42.664;23.346;2023-03-23T00:09:22;38.50;;;24.83;;
6679;SDS011;3376;42.664;23.346;2023-03-23T00:11:51;40.37;;;26.03;;
6679;SDS011;3376;42.664;23.346;2023-03-23T00:14:22;41.50;;;27.07;;
6679;SDS011;3376;42.664;23.346;2023-03-23T00:16:50;45.20;;;27.33;;
6679;SDS011;3376;42.664;23.346;2023-03-23T00:19:17;58.90;;;29.83;;
6679;SDS011;3376;42.664;23.346;2023-03-23T00:21:45;44.70;;;30.07;;
6679;SDS011;3376;42.664;23.346;2023-03-23T00:24:12;41.37;;;28.00;;
6679;SDS011;3376;42.664;23.346;2023-03-23T00:26:43;50.77;;;27.53;;
6679;SDS011;3376;42.664;23.346;2023-03-23T00:29:13;43.27;;;27.97;;
6679;SDS011;3376;42.664;23.346;2023-03-23T00:31:41;48.60;;;29.13;;
6679;SDS011;3376;42.664;23.346;2023-03-23T00:34:12;41.73;;;27.87;;
6679;SDS011;3376;42.664;23.346;2023-03-23T00:36:44;46.47;;;29.20;;
6679;SDS011;3376;42.664;23.346;2023-03-23T00:39:11;37.60;;;27.43;;
6679;SDS011;3376;42.664;23.346;2023-03-23T00:41:41;41.47;;;28.03;;
6679;SDS011;3376;42.664;23.346;2023-03-23T00:44:08;39.17;;;26.80;;
6679;SDS011;3376;42.664;23.346;2023-03-23T00:46:36;49.80;;;34.53;;
6679;SDS011;3376;42.664;23.346;2023-03-23T00:49:09;42.57;;;27.77;;
6679;SDS011;3376;42.664;23.346;2023-03-23T00:51:37;43.83;;;27.93;;
6679;SDS011;3376;42.664;23.346;2023-03-23T00:54:04;36.53;;;24.60;;
6679;SDS011;3376;42.664;23.346;2023-03-23T00:56:31;37.57;;;26.27;;
6679;SDS011;3376;42.664;23.346;2023-03-23T00:58:58;40.67;;;27.17;;
6679;SDS011;3376;42.664;23.346;2023-03-23T01:01:24;34.67;;;24.63;;
6679;SDS011;3376;42.664;23.346;2023-03-23T01:03:53;35.90;;;25.50;;
6679;SDS011;3376;42.664;23.346;2023-03-23T01:06:25;40.77;;;27.43;;
6679;SDS011;3376;42.664;23.346;2023-03-23T01:08:53;46.07;;;32.60;;
6679;SDS011;3376;42.664;23.346;2023-03-23T01:11:21;43.43;;;26.37;;
6679;SDS011;3376;42.664;23.346;2023-03-23T01:13:48;34.93;;;24.47;;
6679;SDS011;3376;42.664;23.346;2023-03-23T01:16:15;31.43;;;24.33;;
6679;SDS011;3376;42.664;23.346;2023-03-23T01:18:42;30.93;;;24.20;;
6679;SDS011;3376;42.664;23.346;2023-03-23T01:21:11;38.27;;;26.83;;
6679;SDS011;3376;42.664;23.346;2023-03-23T01:23:40;32.97;;;25.10;;
6679;SDS011;3376;42.664;23.346;2023-03-23T01:26:08;31.33;;;24.57;;
6679;SDS011;3376;42.664;23.346;2023-03-23T01:28:36;32.60;;;24.13;;
6679;SDS011;3376;42.664;23.346;2023-03-23T01:31:05;35.97;;;24.50;;
6679;SDS011;3376;42.664;23.346;2023-03-23T01:33:33;31.63;;;23.73;;
6679;SDS011;3376;42.664;23.346;2023-03-23T01:36:02;31.60;;;24.87;;
6679;SDS011;3376;42.664;23.346;2023-03-23T01:38:32;32.87;;;24.40;;
6679;SDS011;3376;42.664;23.346;2023-03-23T01:41:00;36.63;;;25.03;;
6679;SDS011;3376;42.664;23.346;2023-03-23T01:43:27;30.20;;;24.20;;
6679;SDS011;3376;42.664;23.346;2023-03-23T01:45:54;37.33;;;26.13;;
6679;SDS011;3376;42.664;23.346;2023-03-23T01:48:22;40.17;;;25.63;;
6679;SDS011;3376;42.664;23.346;2023-03-23T01:50:53;33.00;;;22.67;;
6679;SDS011;3376;42.664;23.346;2023-03-23T01:53:24;32.33;;;23.47;;
6679;SDS011;3376;42.664;23.346;2023-03-23T01:55:57;30.10;;;23.13;;
6679;SDS011;3376;42.664;23.346;2023-03-23T01:58:27;28.70;;;23.63;;
6679;SDS011;3376;42.664;23.346;2023-03-23T02:00:58;34.40;;;25.10;;
6679;SDS011;3376;42.664;23.346;2023-03-23T02:03:28;28.47;;;22.03;;
6679;SDS011;3376;42.664;23.346;2023-03-23T02:05:57;29.73;;;23.77;;
6679;SDS011;3376;42.664;23.346;2023-03-23T02:08:24;29.67;;;22.93;;
6679;SDS011;3376;42.664;23.346;2023-03-23T02:10:54;32.07;;;23.20;;
6679;SDS011;3376;42.664;23.346;2023-03-23T02:13:22;32.70;;;23.50;;
6679;SDS011;3376;42.664;23.346;2023-03-23T02:15:52;26.53;;;21.57;;
6679;SDS011;3376;42.664;23.346;2023-03-23T02:18:31;31.03;;;22.43;;
6679;SDS011;3376;42.664;23.346;2023-03-23T02:24:19;23.70;;;19.37;;
6679;SDS011;3376;42.664;23.346;2023-03-23T02:26:57;23.53;;;19.07;;
6679;SDS011;3376;42.664;23.346;2023-03-23T02:29:32;27.23;;;20.70;;
6679;SDS011;3376;42.664;23.346;2023-03-23T02:32:12;29.70;;;20.73;;
6679;SDS011;3376;42.664;23.346;2023-03-23T02:34:49;21.77;;;19.23;;
6679;SDS011;3376;42.664;23.346;2023-03-23T02:37:19;26.03;;;21.00;;
6679;SDS011;3376;42.664;23.346;2023-03-23T02:39:51;25.40;;;22.43;;
6679;SDS011;3376;42.664;23.346;2023-03-23T02:42:23;23.63;;;20.60;;
6679;SDS011;3376;42.664;23.346;2023-03-23T02:44:54;31.83;;;21.87;;
6679;SDS011;3376;42.664;23.346;2023-03-23T02:47:25;33.53;;;22.47;;
6679;SDS011;3376;42.664;23.346;2023-03-23T02:49:55;23.83;;;19.77;;
6679;SDS011;3376;42.664;23.346;2023-03-23T02:52:24;23.37;;;20.30;;
6679;SDS011;3376;42.664;23.346;2023-03-23T02:54:53;28.43;;;22.13;;
6679;SDS011;3376;42.664;23.346;2023-03-23T02:57:23;31.00;;;21.43;;
6679;SDS011;3376;42.664;23.346;2023-03-23T02:59:52;27.07;;;21.90;;
6679;SDS011;3376;42.664;23.346;2023-03-23T03:02:20;29.53;;;22.80;;
6679;SDS011;3376;42.664;23.346;2023-03-23T03:04:52;37.67;;;25.13;;
6679;SDS011;3376;42.664;23.346;2023-03-23T03:07:29;44.53;;;29.27;;
6679;SDS011;3376;42.664;23.346;2023-03-23T03:10:04;39.17;;;27.47;;
6679;SDS011;3376;42.664;23.346;2023-03-23T03:12:38;43.27;;;29.70;;
6679;SDS011;3376;42.664;23.346;2023-03-23T03:15:14;52.60;;;33.17;;
6679;SDS011;3376;42.664;23.346;2023-03-23T03:17:52;55.13;;;32.50;;
6679;SDS011;3376;42.664;23.346;2023-03-23T03:20:28;55.50;;;33.10;;
6679;SDS011;3376;42.664;23.346;2023-03-23T03:22:56;55.87;;;31.87;;
6679;SDS011;3376;42.664;23.346;2023-03-23T03:25:24;51.13;;;30.77;;
6679;SDS011;3376;42.664;23.346;2023-03-23T03:27:53;45.50;;;30.23;;
6679;SDS011;3376;42.664;23.346;2023-03-23T03:30:23;50.43;;;30.63;;
6679;SDS011;3376;42.664;23.346;2023-03-23T03:32:53;54.00;;;31.43;;
6679;SDS011;3376;42.664;23.346;2023-03-23T03:35:21;49.60;;;31.17;;
6679;SDS011;3376;42.664;23.346;2023-03-23T03:37:50;45.53;;;30.93;;
6679;SDS011;3376;42.664;23.346;2023-03-23T03:40:19;49.97;;;32.50;;
6679;SDS011;3376;42.664;23.346;2023-03-23T03:42:47;50.87;;;32.17;;
6679;SDS011;3376;42.664;23.346;2023-03-23T03:45:15;47.33;;;28.27;;
6679;SDS011;3376;42.664;23.346;2023-03-23T03:47:43;44.23;;;28.63;;
6679;SDS011;3376;42.664;23.346;2023-03-23T03:50:11;40.00;;;25.80;;
6679;SDS011;3376;42.664;23.346;2023-03-23T03:52:38;35.30;;;25.43;;
6679;SDS011;3376;42.664;23.346;2023-03-23T03:55:07;34.83;;;25.33;;
6679;SDS011;3376;42.664;23.346;2023-03-23T03:57:35;42.93;;;26.53;;
6679;SDS011;3376;42.664;23.346;2023-03-23T04:00:03;39.20;;;25.93;;
6679;SDS011;3376;42.664;23.346;2023-03-23T04:02:38;37.13;;;27.27;;
6679;SDS011;3376;42.664;23.346;2023-03-23T04:05:06;34.80;;;27.13;;
6679;SDS011;3376;42.664;23.346;2023-03-23T04:07:34;39.20;;;26.47;;
6679;SDS011;3376;42.664;23.346;2023-03-23T04:10:03;41.40;;;28.70;;
6679;SDS011;3376;42.664;23.346;2023-03-23T04:12:33;39.77;;;27.57;;
6679;SDS011;3376;42.664;23.346;2023-03-23T04:15:00;35.90;;;26.03;;
6679;SDS011;3376;42.664;23.346;2023-03-23T04:17:27;39.53;;;26.80;;
6679;SDS011;3376;42.664;23.346;2023-03-23T04:19:54;35.97;;;25.17;;
6679;SDS011;3376;42.664;23.346;2023-03-23T04:22:22;39.87;;;25.63;;
6679;SDS011;3376;42.664;23.346;2023-03-23T04:24:55;36.80;;;25.17;;
6679;SDS011;3376;42.664;23.346;2023-03-23T04:27:25;32.87;;;22.93;;
6679;SDS011;3376;42.664;23.346;2023-03-23T04:29:55;31.10;;;23.20;;
6679;SDS011;3376;42.664;23.346;2023-03-23T04:32:23;34.63;;;23.50;;
6679;SDS011;3376;42.664;23.346;2023-03-23T04:34:54;33.07;;;23.97;;
6679;SDS011;3376;42.664;23.346;2023-03-23T04:37:21;32.97;;;23.30;;
6679;SDS011;3376;42.664;23.346;2023-03-23T04:39:51;35.37;;;23.83;;
6679;SDS011;3376;42.664;23.346;2023-03-23T04:42:25;35.80;;;24.80;;
6679;SDS011;3376;42.664;23.346;2023-03-23T04:44:55;35.30;;;24.20;;
6679;SDS011;3376;42.664;23.346;2023-03-23T04:47:23;36.03;;;23.97;;
6679;SDS011;3376;42.664;23.346;2023-03-23T04:49:54;47.07;;;26.83;;
6679;SDS011;3376;42.664;23.346;2023-03-23T04:52:21;37.50;;;25.87;;
6679;SDS011;3376;42.664;23.346;2023-03-23T04:54:50;38.53;;;25.97;;
6679;SDS011;3376;42.664;23.346;2023-03-23T04:57:16;38.07;;;25.03;;
6679;SDS011;3376;42.664;23.346;2023-03-23T04:59:43;37.30;;;24.60;;
6679;SDS011;3376;42.664;23.346;2023-03-23T05:04:59;31.73;;;24.57;;
6679;SDS011;3376;42.664;23.346;2023-03-23T05:07:25;33.53;;;24.17;;
6679;SDS011;3376;42.664;23.346;2023-03-23T05:09:52;41.33;;;27.23;;
6679;SDS011;3376;42.664;23.346;2023-03-23T05:12:19;38.70;;;26.67;;
6679;SDS011;3376;42.664;23.346;2023-03-23T05:14:46;33.63;;;25.57;;
6679;SDS011;3376;42.664;23.346;2023-03-23T05:17:13;33.17;;;25.30;;
6679;SDS011;3376;42.664;23.346;2023-03-23T05:19:43;32.30;;;23.63;;
6679;SDS011;3376;42.664;23.346;2023-03-23T05:22:12;27.67;;;20.90;;
6679;SDS011;3376;42.664;23.346;2023-03-23T05:24:39;27.93;;;22.07;;
6679;SDS011;3376;42.664;23.346;2023-03-23T05:27:07;30.70;;;21.83;;
6679;SDS011;3376;42.664;23.346;2023-03-23T05:29:34;22.43;;;19.77;;
6679;SDS011;3376;42.664;23.346;2023-03-23T05:32:02;27.90;;;21.07;;
6679;SDS011;3376;42.664;23.346;2023-03-23T05:34:30;21.53;;;19.17;;
6679;SDS011;3376;42.664;23.346;2023-03-23T05:37:00;26.67;;;20.07;;
6679;SDS011;3376;42.664;23.346;2023-03-23T05:39:28;22.97;;;18.77;;
6679;SDS011;3376;42.664;23.346;2023-03-23T05:41:56;27.23;;;18.03;;
6679;SDS011;3376;42.664;23.346;2023-03-23T05:44:23;23.80;;;19.13;;
6679;SDS011;3376;42.664;23.346;2023-03-23T05:46:51;22.03;;;19.80;;
6679;SDS011;3376;42.664;23.346;2023-03-23T05:49:18;22.73;;;19.03;;
6679;SDS011;3376;42.664;23.346;2023-03-23T05:51:45;18.23;;;16.40;;
6679;SDS011;3376;42.664;23.346;2023-03-23T05:54:13;19.83;;;17.80;;
6679;SDS011;3376;42.664;23.346;2023-03-23T05:56:40;21.97;;;17.67;;
6679;SDS011;3376;42.664;23.346;2023-03-23T05:59:07;20.47;;;17.60;;
6679;SDS011;3376;42.664;23.346;2023-03-23T06:01:35;19.50;;;16.80;;
6679;SDS011;3376;42.664;23.346;2023-03-23T06:04:02;22.13;;;17.53;;
6679;SDS011;3376;42.664;23.346;2023-03-23T06:06:29;20.30;;;17.87;;
6679;SDS011;3376;42.664;23.346;2023-03-23T06:08:56;18.20;;;16.47;;
6679;SDS011;3376;42.664;23.346;2023-03-23T06:11:25;16.77;;;15.17;;
6679;SDS011;3376;42.664;23.346;2023-03-23T06:13:52;16.43;;;14.90;;
6679;SDS011;3376;42.664;23.346;2023-03-23T06:16:19;17.00;;;15.20;;
6679;SDS011;3376;42.664;23.346;2023-03-23T06:18:46;19.77;;;17.10;;
6679;SDS011;3376;42.664;23.346;2023-03-23T06:21:13;20.77;;;16.00;;
6679;SDS011;3376;42.664;23.346;2023-03-23T06:23:40;22.40;;;16.80;;
6679;SDS011;3376;42.664;23.346;2023-03-23T06:26:08;18.30;;;16.33;;
6679;SDS011;3376;42.664;23.346;2023-03-23T06:28:40;19.67;;;17.10;;
6679;SDS011;3376;42.664;23.346;2023-03-23T06:31:07;18.90;;;15.00;;
6679;SDS011;3376;42.664;23.346;2023-03-23T06:33:34;19.60;;;14.93;;
6679;SDS011;3376;42.664;23.346;2023-03-23T06:36:02;16.77;;;15.20;;
6679;SDS011;3376;42.664;23.346;2023-03-23T06:38:31;17.73;;;14.97;;
6679;SDS011;3376;42.664;23.346;2023-03-23T06:40:58;17.17;;;15.80;;
6679;SDS011;3376;42.664;23.346;2023-03-23T06:43:25;16.70;;;15.03;;
6679;SDS011;3376;42.664;23.346;2023-03-23T06:45:53;18.63;;;16.90;;
6679;SDS011;3376;42.664;23.346;2023-03-23T06:48:20;20.10;;;14.60;;
6679;SDS011;3376;42.664;23.346;2023-03-23T06:50:46;25.97;;;17.93;;
6679;SDS011;3376;42.664;23.346;2023-03-23T06:53:13;18.17;;;16.77;;
6679;SDS011;3376;42.664;23.346;2023-03-23T06:55:42;20.10;;;17.70;;
6679;SDS011;3376;42.664;23.346;2023-03-23T06:58:10;20.40;;;17.70;;
6679;SDS011;3376;42.664;23.346;2023-03-23T07:00:37;18.80;;;16.33;;
6679;SDS011;3376;42.664;23.346;2023-03-23T07:03:05;19.83;;;17.77;;
6679;SDS011;3376;42.664;23.346;2023-03-23T07:05:32;19.30;;;17.70;;
6679;SDS011;3376;42.664;23.346;2023-03-23T07:08:00;19.83;;;18.03;;
6679;SDS011;3376;42.664;23.346;2023-03-23T07:10:26;20.83;;;17.57;;
6679;SDS011;3376;42.664;23.346;2023-03-23T07:12:53;18.97;;;16.77;;
6679;SDS011;3376;42.664;23.346;2023-03-23T07:15:20;17.63;;;16.23;;
6679;SDS011;3376;42.664;23.346;2023-03-23T07:17:47;20.80;;;17.50;;
6679;SDS011;3376;42.664;23.346;2023-03-23T07:20:16;18.97;;;16.20;;
6679;SDS011;3376;42.664;23.346;2023-03-23T07:22:42;18.07;;;16.47;;
6679;SDS011;3376;42.664;23.346;2023-03-23T07:25:09;17.43;;;15.93;;
6679;SDS011;3376;42.664;23.346;2023-03-23T07:27:36;19.03;;;17.00;;
6679;SDS011;3376;42.664;23.346;2023-03-23T07:30:04;18.93;;;16.93;;
6679;SDS011;3376;42.664;23.346;2023-03-23T07:32:32;18.20;;;16.43;;
6679;SDS011;3376;42.664;23.346;2023-03-23T07:34:59;18.90;;;17.00;;
6679;SDS011;3376;42.664;23.346;2023-03-23T07:37:28;21.27;;;18.17;;
6679;SDS011;3376;42.664;23.346;2023-03-23T07:39:54;20.67;;;18.30;;
6679;SDS011;3376;42.664;23.346;2023-03-23T07:42:21;20.83;;;18.97;;
6679;SDS011;3376;42.664;23.346;2023-03-23T07:47:23;20.83;;;18.93;;
6679;SDS011;3376;42.664;23.346;2023-03-23T07:49:51;20.87;;;18.80;;
6679;SDS011;3376;42.664;23.346;2023-03-23T07:52:30;18.10;;;16.53;;
6679;SDS011;3376;42.664;23.346;2023-03-23T07:54:57;19.30;;;17.53;;
6679;SDS011;3376;42.664;23.346;2023-03-23T07:57:24;19.47;;;17.60;;
6679;SDS011;3376;42.664;23.346;2023-03-23T07:59:51;18.70;;;16.93;;
6679;SDS011;3376;42.664;23.346;2023-03-23T08:02:18;20.33;;;18.57;;
6679;SDS011;3376;42.664;23.346;2023-03-23T08:04:44;20.30;;;18.40;;
6679;SDS011;3376;42.664;23.346;2023-03-23T08:07:12;21.33;;;19.43;;
6679;SDS011;3376;42.664;23.346;2023-03-23T08:09:42;20.67;;;18.63;;
6679;SDS011;3376;42.664;23.346;2023-03-23T08:12:09;18.90;;;17.47;;
6679;SDS011;3376;42.664;23.346;2023-03-23T08:14:36;20.83;;;18.60;;
6679;SDS011;3376;42.664;23.346;2023-03-23T08:17:03;20.73;;;18.83;;
6679;SDS011;3376;42.664;23.346;2023-03-23T08:19:30;22.53;;;20.07;;
6679;SDS011;3376;42.664;23.346;2023-03-23T08:22:02;21.00;;;18.87;;
6679;SDS011;3376;42.664;23.346;2023-03-23T08:24:29;21.17;;;19.17;;
6679;SDS011;3376;42.664;23.346;2023-03-23T08:26:59;18.30;;;16.83;;
6679;SDS011;3376;42.664;23.346;2023-03-23T08:29:26;18.10;;;16.47;;
6679;SDS011;3376;42.664;23.346;2023-03-23T08:31:53;17.43;;;15.83;;
6679;SDS011;3376;42.664;23.346;2023-03-23T08:34:20;17.87;;;16.23;;
6679;SDS011;3376;42.664;23.346;2023-03-23T08:36:47;17.53;;;16.07;;
6679;SDS011;3376;42.664;23.346;2023-03-23T08:39:16;16.83;;;15.00;;
6679;SDS011;3376;42.664;23.346;2023-03-23T08:41:44;14.77;;;13.73;;
6679;SDS011;3376;42.664;23.346;2023-03-23T08:44:12;13.37;;;12.30;;
6679;SDS011;3376;42.664;23.346;2023-03-23T08:46:39;10.70;;;10.07;;
6679;SDS011;3376;42.664;23.346;2023-03-23T08:49:06;10.07;;;9.37;;
6679;SDS011;3376;42.664;23.346;2023-03-23T08:51:33;12.97;;;12.10;;
6679;SDS011;3376;42.664;23.346;2023-03-23T08:54:00;14.10;;;13.23;;
6679;SDS011;3376;42.664;23.346;2023-03-23T08:56:27;9.60;;;9.10;;
6679;SDS011;3376;42.664;23.346;2023-03-23T08:58:54;11.27;;;10.40;;
6679;SDS011;3376;42.664;23.346;2023-03-23T09:01:22;9.77;;;9.07;;
6679;SDS011;3376;42.664;23.346;2023-03-23T09:03:49;7.70;;;7.20;;
6679;SDS011;3376;42.664;23.346;2023-03-23T09:06:16;8.73;;;8.37;;
6679;SDS011;3376;42.664;23.346;2023-03-23T09:08:43;9.93;;;9.33;;
6679;SDS011;3376;42.664;23.346;2023-03-23T09:11:10;10.83;;;10.20;;
6679;SDS011;3376;42.664;23.346;2023-03-23T09:13:37;9.77;;;9.27;;
6679;SDS011;3376;42.664;23.346;2023-03-23T09:16:05;9.73;;;9.13;;
6679;SDS011;3376;42.664;23.346;2023-03-23T09:18:34;9.77;;;9.13;;
6679;SDS011;3376;42.664;23.346;2023-03-23T09:21:02;9.30;;;8.60;;
6679;SDS011;3376;42.664;23.346;2023-03-23T09:23:30;19.10;;;9.47;;
6679;SDS011;3376;42.664;23.346;2023-03-23T09:25:57;8.73;;;8.23;;
6679;SDS011;3376;42.664;23.346;2023-03-23T09:28:26;8.37;;;7.87;;
6679;SDS011;3376;42.664;23.346;2023-03-23T09:30:54;8.70;;;8.23;;
6679;SDS011;3376;42.664;23.346;2023-03-23T09:33:22;9.50;;;8.83;;
6679;SDS011;3376;42.664;23.346;2023-03-23T09:35:51;8.80;;;8.40;;
6679;SDS011;3376;42.664;23.346;2023-03-23T09:38:18;9.80;;;8.93;;
6679;SDS011;3376;42.664;23.346;2023-03-23T09:40:46;9.40;;;9.00;;
6679;SDS011;3376;42.664;23.346;2023-03-23T09:46:16;9.00;;;8.43;;
6679;SDS011;3376;42.664;23.346;2023-03-23T09:48:54;8.60;;;8.13;;
6679;SDS011;3376;42.664;23.346;2023-03-23T09:51:28;8.93;;;8.43;;
6679;SDS011;3376;42.664;23.346;2023-03-23T09:54:03;8.80;;;7.97;;
6679;SDS011;3376;42.664;23.346;2023-03-23T09:56:35;8.60;;;7.83;;
6679;SDS011;3376;42.664;23.346;2023-03-23T09:59:05;9.13;;;8.50;;
6679;SDS011;3376;42.664;23.346;2023-03-23T10:01:39;6.80;;;6.40;;
6679;SDS011;3376;42.664;23.346;2023-03-23T10:04:10;6.83;;;6.53;;
6679;SDS011;3376;42.664;23.346;2023-03-23T10:06:47;6.63;;;6.33;;
6679;SDS011;3376;42.664;23.346;2023-03-23T10:09:14;7.03;;;6.63;;
6679;SDS011;3376;42.664;23.346;2023-03-23T10:11:47;7.43;;;6.83;;
6679;SDS011;3376;42.664;23.346;2023-03-23T10:14:30;6.77;;;6.27;;
6679;SDS011;3376;42.664;23.346;2023-03-23T10:17:07;6.73;;;6.40;;
6679;SDS011;3376;42.664;23.346;2023-03-23T10:19:41;7.87;;;7.30;;
6679;SDS011;3376;42.664;23.346;2023-03-23T10:22:14;7.67;;;7.27;;
6679;SDS011;3376;42.664;23.346;2023-03-23T10:24:50;7.43;;;7.13;;
6679;SDS011;3376;42.664;23.346;2023-03-23T10:27:20;8.57;;;8.00;;
6679;SDS011;3376;42.664;23.346;2023-03-23T10:29:53;7.80;;;7.50;;
6679;SDS011;3376;42.664;23.346;2023-03-23T10:32:36;8.20;;;7.50;;
6679;SDS011;3376;42.664;23.346;2023-03-23T10:35:09;8.70;;;8.20;;
6679;SDS011;3376;42.664;23.346;2023-03-23T10:37:42;7.57;;;7.17;;
6679;SDS011;3376;42.664;23.346;2023-03-23T10:40:15;6.60;;;6.37;;
6679;SDS011;3376;42.664;23.346;2023-03-23T10:42:44;7.67;;;7.27;;
6679;SDS011;3376;42.664;23.346;2023-03-23T10:45:14;6.57;;;6.27;;
6679;SDS011;3376;42.664;23.346;2023-03-23T10:47:46;6.43;;;6.23;;
6679;SDS011;3376;42.664;23.346;2023-03-23T10:50:16;6.57;;;6.17;;
6679;SDS011;3376;42.664;23.346;2023-03-23T10:52:50;7.07;;;6.67;;
6679;SDS011;3376;42.664;23.346;2023-03-23T10:55:21;7.20;;;6.87;;
6679;SDS011;3376;42.664;23.346;2023-03-23T10:57:58;7.23;;;6.83;;
6679;SDS011;3376;42.664;23.346;2023-03-23T11:00:27;8.33;;;7.80;;
6679;SDS011;3376;42.664;23.346;2023-03-23T11:02:59;7.40;;;6.70;;
6679;SDS011;3376;42.664;23.346;2023-03-23T11:05:32;7.60;;;7.07;;
6679;SDS011;3376;42.664;23.346;2023-03-23T11:08:04;6.93;;;6.43;;
6679;SDS011;3376;42.664;23.346;2023-03-23T11:10:39;7.40;;;7.10;;
6679;SDS011;3376;42.664;23.346;2023-03-23T11:13:10;6.07;;;5.77;;
6679;SDS011;3376;42.664;23.346;2023-03-23T11:15:40;6.40;;;5.90;;
6679;SDS011;3376;42.664;23.346;2023-03-23T11:18:10;6.70;;;6.50;;
6679;SDS011;3376;42.664;23.346;2023-03-23T11:20:39;6.80;;;6.40;;
6679;SDS011;3376;42.664;23.346;2023-03-23T11:23:10;6.83;;;6.53;;
6679;SDS011;3376;42.664;23.346;2023-03-23T11:25:50;6.77;;;6.47;;
6679;SDS011;3376;42.664;23.346;2023-03-23T11:28:22;7.80;;;7.20;;
6679;SDS011;3376;42.664;23.346;2023-03-23T11:30:54;6.23;;;5.93;;
6679;SDS011;3376;42.664;23.346;2023-03-23T11:33:22;6.33;;;5.93;;
6679;SDS011;3376;42.664;23.346;2023-03-23T11:35:51;5.60;;;5.40;;
6679;SDS011;3376;42.664;23.346;2023-03-23T11:38:21;5.57;;;5.37;;
6679;SDS011;3376;42.664;23.346;2023-03-23T11:40:51;5.80;;;5.50;;
6679;SDS011;3376;42.664;23.346;2023-03-23T11:43:19;5.30;;;5.10;;
6679;SDS011;3376;42.664;23.346;2023-03-23T11:45:49;5.93;;;5.63;;
6679;SDS011;3376;42.664;23.346;2023-03-23T11:48:24;5.83;;;5.53;;
6679;SDS011;3376;42.664;23.346;2023-03-23T11:50:55;5.80;;;5.60;;
6679;SDS011;3376;42.664;23.346;2023-03-23T11:53:30;6.33;;;5.93;;
6679;SDS011;3376;42.664;23.346;2023-03-23T11:56:07;5.97;;;5.77;;
6679;SDS011;3376;42.664;23.346;2023-03-23T12:01:29;6.20;;;5.73;;
6679;SDS011;3376;42.664;23.346;2023-03-23T12:04:18;5.90;;;5.67;;
6679;SDS011;3376;42.664;23.346;2023-03-23T12:07:23;6.77;;;6.37;;
6679;SDS011;3376;42.664;23.346;2023-03-23T12:10:01;6.50;;;6.10;;
6679;SDS011;3376;42.664;23.346;2023-03-23T12:12:38;6.50;;;6.20;;
6679;SDS011;3376;42.664;23.346;2023-03-23T12:15:13;6.33;;;5.90;;
6679;SDS011;3376;42.664;23.346;2023-03-23T12:17:50;5.97;;;5.77;;
6679;SDS011;3376;42.664;23.346;2023-03-23T12:20:26;6.10;;;5.77;;
6679;SDS011;3376;42.664;23.346;2023-03-23T12:23:02;6.40;;;6.00;;
6679;SDS011;3376;42.664;23.346;2023-03-23T12:25:50;6.13;;;5.83;;
6679;SDS011;3376;42.664;23.346;2023-03-23T12:28:29;6.50;;;6.20;;
6679;SDS011;3376;42.664;23.346;2023-03-23T12:31:04;7.23;;;6.93;;
6679;SDS011;3376;42.664;23.346;2023-03-23T12:33:42;6.50;;;6.13;;
6679;SDS011;3376;42.664;23.346;2023-03-23T12:36:20;6.40;;;6.20;;
6679;SDS011;3376;42.664;23.346;2023-03-23T12:39:04;6.30;;;6.10;;
6679;SDS011;3376;42.664;23.346;2023-03-23T12:41:44;6.07;;;5.67;;
6679;SDS011;3376;42.664;23.346;2023-03-23T12:44:18;6.90;;;6.33;;
6679;SDS011;3376;42.664;23.346;2023-03-23T12:46:56;7.97;;;7.57;;
6679;SDS011;3376;42.664;23.346;2023-03-23T12:49:39;6.87;;;6.57;;
6679;SDS011;3376;42.664;23.346;2023-03-23T12:52:14;7.93;;;7.33;;
6679;SDS011;3376;42.664;23.346;2023-03-23T12:54:45;7.53;;;7.13;;
6679;SDS011;3376;42.664;23.346;2023-03-23T12:57:22;6.30;;;6.00;;
6679;SDS011;3376;42.664;23.346;2023-03-23T12:59:57;5.93;;;5.63;;
6679;SDS011;3376;42.664;23.346;2023-03-23T13:02:36;6.40;;;5.90;;
6679;SDS011;3376;42.664;23.346;2023-03-23T13:05:09;5.90;;;5.50;;
6679;SDS011;3376;42.664;23.346;2023-03-23T13:07:42;6.47;;;6.17;;
6679;SDS011;3376;42.664;23.346;2023-03-23T13:10:14;6.03;;;5.73;;
6679;SDS011;3376;42.664;23.346;2023-03-23T13:12:47;6.40;;;6.03;;
6679;SDS011;3376;42.664;23.346;2023-03-23T13:15:20;6.10;;;5.70;;
6679;SDS011;3376;42.664;23.346;2023-03-23T13:17:54;6.83;;;6.33;;
6679;SDS011;3376;42.664;23.346;2023-03-23T13:20:33;5.87;;;5.67;;
6679;SDS011;3376;42.664;23.346;2023-03-23T13:23:09;6.00;;;5.70;;
6679;SDS011;3376;42.664;23.346;2023-03-23T13:25:44;6.87;;;6.53;;
6679;SDS011;3376;42.664;23.346;2023-03-23T13:28:17;6.17;;;5.87;;
6679;SDS011;3376;42.664;23.346;2023-03-23T13:31:00;5.80;;;5.50;;
6679;SDS011;3376;42.664;23.346;2023-03-23T13:33:30;5.80;;;5.60;;
6679;SDS011;3376;42.664;23.346;2023-03-23T13:36:04;8.60;;;6.37;;
6679;SDS011;3376;42.664;23.346;2023-03-23T13:38:35;6.57;;;6.07;;
6679;SDS011;3376;42.664;23.346;2023-03-23T13:41:10;5.33;;;5.13;;
6679;SDS011;3376;42.664;23.346;2023-03-23T13:43:41;5.87;;;5.57;;
6679;SDS011;3376;42.664;23.346;2023-03-23T13:46:11;5.67;;;5.37;;
6679;SDS011;3376;42.664;23.346;2023-03-23T13:48:50;5.70;;;5.40;;
6679;SDS011;3376;42.664;23.346;2023-03-23T13:51:33;5.50;;;5.10;;
6679;SDS011;3376;42.664;23.346;2023-03-23T13:54:12;5.87;;;5.47;;
6679;SDS011;3376;42.664;23.346;2023-03-23T13:56:48;5.20;;;4.90;;
6679;SDS011;3376;42.664;23.346;2023-03-23T13:59:46;5.87;;;5.47;;
6679;SDS011;3376;42.664;23.346;2023-03-23T14:02:26;5.57;;;5.10;;
6679;SDS011;3376;42.664;23.346;2023-03-23T14:04:56;5.83;;;5.53;;
6679;SDS011;3376;42.664;23.346;2023-03-23T14:10:20;5.53;;;5.27;;
6679;SDS011;3376;42.664;23.346;2023-03-23T14:12:48;5.80;;;5.50;;
6679;SDS011;3376;42.664;23.346;2023-03-23T14:15:18;5.27;;;5.07;;
6679;SDS011;3376;42.664;23.346;2023-03-23T14:17:44;5.53;;;5.33;;
6679;SDS011;3376;42.664;23.346;2023-03-23T14:20:17;5.37;;;5.17;;
6679;SDS011;3376;42.664;23.346;2023-03-23T14:22:52;5.33;;;5.13;;
6679;SDS011;3376;42.664;23.346;2023-03-23T14:25:20;6.23;;;5.73;;
6679;SDS011;3376;42.664;23.346;2023-03-23T14:27:50;5.93;;;5.63;;
6679;SDS011;3376;42.664;23.346;2023-03-23T14:30:20;6.03;;;5.73;;
6679;SDS011;3376;42.664;23.346;2023-03-23T14:32:50;5.73;;;5.43;;
6679;SDS011;3376;42.664;23.346;2023-03-23T14:35:18;6.07;;;5.20;;
6679;SDS011;3376;42.664;23.346;2023-03-23T14:37:53;5.80;;;5.60;;
6679;SDS011;3376;42.664;23.346;2023-03-23T14:40:20;5.77;;;5.37;;
6679;SDS011;3376;42.664;23.346;2023-03-23T14:42:47;6.23;;;5.93;;
6679;SDS011;3376;42.664;23.346;2023-03-23T14:45:21;5.97;;;5.77;;
6679;SDS011;3376;42.664;23.346;2023-03-23T14:47:50;5.50;;;4.97;;
6679;SDS011;3376;42.664;23.346;2023-03-23T14:53:09;6.13;;;5.63;;
6679;SDS011;3376;42.664;23.346;2023-03-23T14:55:41;5.93;;;5.67;;
6679;SDS011;3376;42.664;23.346;2023-03-23T14:58:08;5.97;;;5.77;;
6679;SDS011;3376;42.664;23.346;2023-03-23T15:00:41;5.83;;;5.60;;
6679;SDS011;3376;42.664;23.346;2023-03-23T15:03:11;5.73;;;5.23;;
6679;SDS011;3376;42.664;23.346;2023-03-23T15:05:41;5.70;;;5.30;;
6679;SDS011;3376;42.664;23.346;2023-03-23T15:08:12;5.63;;;5.33;;
6679;SDS011;3376;42.664;23.346;2023-03-23T15:10:50;5.60;;;5.40;;
6679;SDS011;3376;42.664;23.346;2023-03-23T15:13:19;6.03;;;5.67;;
6679;SDS011;3376;42.664;23.346;2023-03-23T15:15:47;6.43;;;6.13;;
6679;SDS011;3376;42.664;23.346;2023-03-23T15:20:58;6.57;;;6.00;;
6679;SDS011;3376;42.664;23.346;2023-03-23T15:23:34;5.97;;;5.47;;
6679;SDS011;3376;42.664;23.346;2023-03-23T15:26:22;6.57;;;5.77;;
6679;SDS011;3376;42.664;23.346;2023-03-23T15:29:00;6.50;;;6.20;;